createdAt,value
2019-02-18T00:02:06.388Z,20.97
2019-02-18T00:04:35.719Z,20.80
2019-02-18T00:07:14.106Z,19.23
2019-02-18T00:09:36.205Z,20.13
2019-02-18T00:12:05.610Z,21.90
2019-02-18T00:14:35.383Z,19.07
2019-02-18T00:17:04.804Z,20.63
2019-02-18T00:19:34.226Z,19.00
2019-02-18T00:22:03.553Z,20.40
2019-02-18T00:24:35.306Z,22.07
2019-02-18T00:27:04.714Z,21.00
2019-02-18T00:29:34.150Z,23.40
2019-02-18T00:32:03.678Z,16.87
2019-02-18T00:34:33.151Z,19.60
2019-02-18T00:37:02.525Z,20.27
2019-02-18T00:39:31.954Z,17.87
2019-02-18T00:42:01.538Z,17.50
2019-02-18T00:44:30.967Z,19.70
2019-02-18T00:47:00.332Z,17.97
2019-02-18T00:49:29.678Z,15.40
2019-02-18T00:51:59.104Z,15.97
2019-02-18T00:54:28.781Z,17.87
2019-02-18T00:56:58.150Z,20.13
2019-02-18T00:59:27.968Z,21.03
2019-02-18T01:01:57.778Z,17.83
2019-02-18T01:04:27.181Z,17.37
2019-02-18T01:06:56.652Z,18.10
2019-02-18T01:09:26.263Z,15.77
2019-02-18T01:11:55.776Z,19.53
2019-02-18T01:14:25.302Z,16.17
2019-02-18T01:16:54.824Z,16.70
2019-02-18T01:19:24.314Z,18.33
2019-02-18T01:21:53.809Z,16.13
2019-02-18T01:24:23.168Z,19.80
2019-02-18T01:26:52.551Z,17.20
2019-02-18T01:29:22.382Z,20.57
2019-02-18T01:31:51.762Z,18.00
2019-02-18T01:34:21.207Z,20.00
2019-02-18T01:36:50.559Z,21.53
2019-02-18T01:39:19.942Z,17.27
2019-02-18T01:41:49.510Z,17.60
2019-02-18T01:44:19.188Z,19.17
2019-02-18T01:46:49.020Z,17.43
2019-02-18T01:49:19.108Z,15.87
2019-02-18T01:51:49.360Z,18.17
2019-02-18T01:54:19.301Z,17.13
2019-02-18T01:59:21.763Z,17.07
2019-02-18T02:01:51.231Z,21.00
2019-02-18T02:04:20.871Z,20.30
2019-02-18T02:06:50.935Z,17.70
2019-02-18T02:09:21.064Z,17.90
2019-02-18T02:11:51.895Z,19.77
2019-02-18T02:14:21.879Z,19.47
2019-02-18T02:16:51.630Z,16.73
2019-02-18T02:19:21.912Z,18.77
2019-02-18T02:21:52.086Z,22.23
2019-02-18T02:24:21.905Z,17.10
2019-02-18T02:26:52.209Z,19.63
2019-02-18T02:29:22.747Z,19.80
2019-02-18T02:31:53.122Z,23.27
2019-02-18T02:34:23.387Z,16.80
2019-02-18T02:36:53.476Z,19.57
2019-02-18T02:39:23.620Z,19.20
2019-02-18T02:41:53.416Z,19.67
2019-02-18T02:44:23.220Z,17.70
2019-02-18T02:46:53.018Z,19.27
2019-02-18T02:49:23.576Z,18.57
2019-02-18T02:51:53.163Z,20.90
2019-02-18T02:54:23.682Z,20.93
2019-02-18T02:56:53.100Z,20.40
2019-02-18T02:59:22.488Z,17.03
2019-02-18T03:01:52.170Z,19.53
2019-02-18T03:04:23.351Z,17.97
2019-02-18T03:06:52.832Z,19.87
2019-02-18T03:09:22.353Z,19.00
2019-02-18T03:11:51.885Z,18.97
2019-02-18T03:14:21.336Z,21.67
2019-02-18T03:16:50.765Z,22.03
2019-02-18T03:19:20.625Z,21.40
2019-02-18T03:21:50.560Z,20.67
2019-02-18T03:24:20.221Z,19.73
2019-02-18T03:26:49.766Z,21.13
2019-02-18T03:29:50.012Z,19.23
2019-02-18T03:32:20.458Z,22.83
2019-02-18T03:34:50.601Z,20.63
2019-02-18T03:37:20.138Z,18.23
2019-02-18T03:39:49.526Z,17.87
2019-02-18T03:42:18.946Z,21.40
2019-02-18T03:44:48.678Z,22.00
2019-02-18T03:47:18.038Z,24.57
2019-02-18T03:49:47.422Z,23.23
2019-02-18T03:52:16.906Z,27.27
2019-02-18T03:54:46.819Z,25.43
2019-02-18T03:57:16.275Z,24.33
2019-02-18T03:59:48.018Z,23.10
2019-02-18T04:02:18.445Z,27.33
2019-02-18T04:04:48.333Z,23.40
2019-02-18T04:07:18.515Z,22.50
2019-02-18T04:09:48.728Z,21.53
2019-02-18T04:12:18.666Z,22.27
2019-02-18T04:14:49.092Z,24.30
2019-02-18T04:17:18.851Z,24.20
2019-02-18T04:19:48.494Z,22.37
2019-02-18T04:22:17.927Z,25.17
2019-02-18T04:24:47.567Z,25.33
2019-02-18T04:27:17.190Z,30.30
2019-02-18T04:29:46.594Z,25.33
2019-02-18T04:32:17.079Z,25.23
2019-02-18T04:34:46.993Z,24.27
2019-02-18T04:37:16.848Z,30.93
2019-02-18T04:39:46.536Z,26.03
2019-02-18T04:42:16.213Z,29.77
2019-02-18T04:44:48.642Z,23.67
2019-02-18T04:47:18.209Z,27.77
2019-02-18T04:49:48.821Z,29.43
2019-02-18T04:52:18.545Z,29.93
2019-02-18T04:54:49.622Z,28.60
2019-02-18T04:57:19.240Z,26.43
2019-02-18T04:59:48.688Z,25.37
2019-02-18T05:02:18.506Z,30.00
2019-02-18T05:04:48.500Z,30.67
2019-02-18T05:07:18.622Z,28.33
2019-02-18T05:09:48.373Z,31.60
2019-02-18T05:12:18.609Z,28.37
2019-02-18T05:14:48.354Z,28.20
2019-02-18T05:17:17.823Z,27.87
2019-02-18T05:19:47.176Z,27.00
2019-02-18T05:22:16.552Z,28.67
2019-02-18T05:24:46.207Z,29.17
2019-02-18T05:27:15.647Z,28.80
2019-02-18T05:29:45.138Z,25.23
2019-02-18T05:32:14.522Z,32.10
2019-02-18T05:34:44.134Z,30.13
2019-02-18T05:37:13.596Z,30.80
2019-02-18T05:39:43.083Z,29.83
2019-02-18T05:42:12.558Z,30.57
2019-02-18T05:44:42.167Z,29.47
2019-02-18T05:47:11.997Z,26.97
2019-02-18T05:49:41.652Z,28.97
2019-02-18T05:52:11.392Z,33.35
2019-02-18T05:54:41.053Z,30.67
2019-02-18T05:57:10.548Z,32.67
2019-02-18T05:59:39.978Z,33.25
2019-02-18T06:02:09.414Z,29.63
2019-02-18T06:04:38.836Z,33.13
2019-02-18T06:07:08.244Z,30.00
2019-02-18T06:09:37.763Z,32.20
2019-02-18T06:12:07.194Z,29.67
2019-02-18T06:14:36.629Z,30.00
2019-02-18T06:17:06.466Z,30.90
2019-02-18T06:19:38.231Z,30.00
2019-02-18T06:22:07.664Z,32.17
2019-02-18T06:24:38.007Z,30.10
2019-02-18T06:27:08.652Z,40.13
2019-02-18T06:29:38.268Z,34.37
2019-02-18T06:32:07.619Z,34.03
2019-02-18T06:34:37.147Z,35.50
2019-02-18T06:37:06.544Z,32.03
2019-02-18T06:39:41.443Z,34.80
2019-02-18T06:42:07.123Z,37.03
2019-02-18T06:44:51.395Z,31.27
2019-02-18T06:47:25.211Z,31.40
2019-02-18T06:49:54.820Z,37.03
2019-02-18T06:52:24.282Z,38.33
2019-02-18T06:54:53.942Z,35.03
2019-02-18T06:57:48.319Z,30.27
2019-02-18T07:00:24.261Z,33.10
2019-02-18T07:03:04.100Z,38.87
2019-02-18T07:05:40.755Z,32.93
2019-02-18T07:08:26.215Z,35.00
2019-02-18T07:11:02.582Z,35.67
2019-02-18T07:13:32.038Z,35.73
2019-02-18T07:16:01.627Z,34.73
2019-02-18T07:18:31.070Z,32.60
2019-02-18T07:21:00.767Z,34.57
2019-02-18T07:23:30.371Z,37.43
2019-02-18T07:26:00.078Z,33.37
2019-02-18T07:28:29.763Z,39.67
2019-02-18T07:30:59.160Z,40.33
2019-02-18T07:33:28.654Z,34.30
2019-02-18T07:35:58.360Z,37.33
2019-02-18T07:38:28.376Z,34.20
2019-02-18T07:40:57.961Z,36.83
2019-02-18T07:43:28.025Z,35.40
2019-02-18T07:45:57.505Z,34.17
2019-02-18T07:48:27.610Z,42.20
2019-02-18T07:50:57.125Z,43.20
2019-02-18T07:53:26.510Z,41.00
2019-02-18T07:55:55.973Z,35.93
2019-02-18T07:58:27.944Z,41.60
2019-02-18T08:00:58.456Z,43.70
2019-02-18T08:03:31.276Z,34.90
2019-02-18T08:06:09.617Z,34.27
2019-02-18T08:08:39.805Z,37.53
2019-02-18T08:11:09.309Z,46.90
2019-02-18T08:13:47.721Z,38.30
2019-02-18T08:16:20.625Z,41.90
2019-02-18T08:18:53.807Z,38.17
2019-02-18T08:21:29.203Z,46.10
2019-02-18T08:24:06.131Z,40.40
2019-02-18T08:26:33.413Z,42.67
2019-02-18T08:29:07.110Z,40.57
2019-02-18T08:31:37.051Z,44.67
2019-02-18T08:34:06.916Z,44.00
2019-02-18T08:37:08.944Z,42.17
2019-02-18T08:39:39.262Z,43.53
2019-02-18T08:42:20.998Z,38.00
2019-02-18T08:44:57.189Z,40.17
2019-02-18T08:47:36.406Z,42.23
2019-02-18T08:50:34.567Z,46.97
2019-02-18T08:53:15.000Z,42.33
2019-02-18T08:56:03.144Z,46.90
2019-02-18T09:01:54.091Z,41.17
2019-02-18T09:04:31.337Z,44.57
2019-02-18T09:07:04.026Z,41.33
2019-02-18T09:09:39.839Z,38.37
2019-02-18T09:12:13.853Z,45.43
2019-02-18T09:14:48.050Z,40.90
2019-02-18T09:17:24.329Z,39.17
2019-02-18T09:19:53.714Z,42.20
2019-02-18T09:22:40.931Z,41.60
2019-02-18T09:25:16.261Z,38.03
2019-02-18T09:27:46.143Z,42.03
2019-02-18T09:30:18.549Z,41.03
2019-02-18T09:32:48.780Z,38.37
2019-02-18T09:35:35.114Z,37.87
2019-02-18T09:38:29.724Z,45.83
2019-02-18T09:41:41.312Z,42.57
2019-02-18T09:44:10.887Z,40.10
2019-02-18T09:46:40.549Z,43.53
2019-02-18T09:49:10.025Z,40.57
2019-02-18T09:51:39.613Z,46.03
2019-02-18T09:54:09.224Z,38.77
2019-02-18T09:56:38.740Z,36.77
2019-02-18T09:59:08.291Z,42.53
2019-02-18T10:01:37.847Z,39.53
2019-02-18T10:04:07.432Z,42.53
2019-02-18T10:06:37.022Z,41.37
2019-02-18T10:09:07.540Z,39.53
2019-02-18T10:11:37.072Z,44.10
2019-02-18T10:14:06.662Z,42.83
2019-02-18T10:16:36.153Z,51.07
2019-02-18T10:19:05.625Z,41.73
2019-02-18T10:21:35.196Z,50.53
2019-02-18T10:24:04.778Z,54.93
2019-02-18T10:26:34.328Z,52.07
2019-02-18T10:29:03.897Z,45.93
2019-02-18T10:31:33.435Z,41.83
2019-02-18T10:34:03.004Z,43.37
2019-02-18T10:36:32.857Z,41.17
2019-02-18T10:39:02.716Z,43.93
2019-02-18T10:41:32.290Z,44.23
2019-02-18T10:44:01.851Z,45.03
2019-02-18T10:46:31.428Z,49.10
2019-02-18T10:49:01.000Z,50.93
2019-02-18T10:51:30.543Z,54.87
2019-02-18T10:54:00.106Z,43.77
2019-02-18T10:56:29.862Z,43.73
2019-02-18T10:58:59.446Z,42.80
2019-02-18T11:01:29.041Z,44.90
2019-02-18T11:03:58.630Z,43.57
2019-02-18T11:06:28.188Z,42.33
2019-02-18T11:08:58.041Z,53.20
2019-02-18T11:11:27.613Z,42.20
2019-02-18T11:13:57.163Z,38.30
2019-02-18T11:16:26.737Z,42.97
2019-02-18T11:18:56.546Z,44.17
2019-02-18T11:21:26.450Z,37.63
2019-02-18T11:23:56.316Z,37.73
2019-02-18T11:26:25.930Z,38.50
2019-02-18T11:28:55.502Z,31.23
2019-02-18T11:31:25.235Z,24.33
2019-02-18T11:33:54.724Z,32.30
2019-02-18T11:36:24.842Z,27.50
2019-02-18T11:38:54.398Z,27.60
2019-02-18T11:41:27.398Z,24.13
2019-02-18T11:43:55.364Z,27.43
2019-02-18T11:46:24.935Z,31.63
2019-02-18T11:48:54.482Z,26.60
2019-02-18T11:51:24.213Z,23.80
2019-02-18T11:53:53.779Z,23.10
2019-02-18T11:56:23.396Z,30.53
2019-02-18T11:58:53.291Z,28.80
2019-02-18T12:01:22.914Z,23.20
2019-02-18T12:03:52.488Z,24.60
2019-02-18T12:06:22.085Z,24.43
2019-02-18T12:08:51.691Z,26.07
2019-02-18T12:11:21.262Z,23.93
2019-02-18T12:13:51.164Z,21.40
2019-02-18T12:16:20.751Z,24.23
2019-02-18T12:18:50.295Z,26.60
2019-02-18T12:21:20.014Z,24.37
2019-02-18T12:23:49.555Z,24.73
2019-02-18T12:26:19.143Z,22.03
2019-02-18T12:28:49.152Z,31.87
2019-02-18T12:31:19.129Z,25.77
2019-02-18T12:33:48.653Z,24.30
2019-02-18T12:36:18.224Z,24.70
2019-02-18T12:38:47.964Z,25.20
2019-02-18T12:41:17.526Z,27.27
2019-02-18T12:43:47.281Z,30.80
2019-02-18T12:46:16.898Z,30.60
2019-02-18T12:48:46.490Z,26.80
2019-02-18T12:51:16.047Z,28.37
2019-02-18T12:53:46.480Z,24.97
2019-02-18T12:56:16.199Z,31.70
2019-02-18T12:58:54.451Z,24.47
2019-02-18T13:01:17.371Z,25.27
2019-02-18T13:03:46.923Z,22.30
2019-02-18T13:06:16.512Z,22.87
2019-02-18T13:08:46.082Z,23.07
2019-02-18T13:11:15.654Z,25.30
2019-02-18T13:13:45.239Z,26.33
2019-02-18T13:16:14.996Z,24.20
2019-02-18T13:18:44.544Z,24.10
2019-02-18T13:21:14.136Z,24.43
2019-02-18T13:23:44.105Z,21.43
2019-02-18T13:26:14.019Z,28.90
2019-02-18T13:28:43.717Z,26.73
2019-02-18T13:31:13.645Z,23.73
2019-02-18T13:33:43.555Z,21.87
2019-02-18T13:36:15.295Z,23.67
2019-02-18T13:38:44.834Z,24.00
2019-02-18T13:41:14.452Z,24.17
2019-02-18T13:43:44.053Z,30.50
2019-02-18T13:46:13.847Z,22.83
2019-02-18T13:48:43.450Z,24.17
2019-02-18T13:51:13.057Z,24.10
2019-02-18T13:53:42.629Z,21.87
2019-02-18T13:56:12.325Z,24.83
2019-02-18T13:58:41.965Z,28.13
2019-02-18T14:01:12.336Z,20.67
2019-02-18T14:03:41.954Z,26.07
2019-02-18T14:06:12.075Z,27.40
2019-02-18T14:08:41.591Z,23.57
2019-02-18T14:11:11.390Z,26.07
2019-02-18T14:13:41.198Z,26.00
2019-02-18T14:16:11.460Z,22.33
2019-02-18T14:18:41.090Z,23.77
2019-02-18T14:21:12.592Z,19.67
2019-02-18T14:23:44.923Z,25.20
2019-02-18T14:26:20.649Z,24.53
2019-02-18T14:28:50.261Z,20.43
2019-02-18T14:31:19.940Z,21.57
2019-02-18T14:33:49.480Z,28.97
2019-02-18T14:36:19.053Z,30.53
2019-02-18T14:38:48.647Z,30.53
2019-02-18T14:41:19.809Z,28.87
2019-02-18T14:43:49.416Z,21.97
2019-02-18T14:46:19.001Z,26.93
2019-02-18T14:48:48.578Z,29.90
2019-02-18T14:51:18.113Z,27.43
2019-02-18T14:53:48.288Z,25.27
2019-02-18T14:56:18.383Z,22.53
2019-02-18T14:58:47.944Z,24.70
2019-02-18T15:01:17.786Z,23.93
2019-02-18T15:03:47.330Z,26.23
2019-02-18T15:06:16.970Z,22.97
2019-02-18T15:08:46.486Z,23.80
2019-02-18T15:11:17.109Z,24.03
2019-02-18T15:13:46.653Z,26.37
2019-02-18T15:16:16.196Z,23.67
2019-02-18T15:18:45.806Z,24.05
2019-02-18T15:21:15.405Z,22.23
2019-02-18T15:23:45.413Z,22.30
2019-02-18T15:26:14.992Z,20.00
2019-02-18T15:28:44.615Z,28.77
2019-02-18T15:31:14.420Z,22.40
2019-02-18T15:33:43.952Z,20.87
2019-02-18T15:36:13.576Z,24.97
2019-02-18T15:38:43.439Z,22.03
2019-02-18T15:41:13.151Z,20.20
2019-02-18T15:43:42.822Z,20.77
2019-02-18T15:46:12.696Z,25.67
2019-02-18T15:48:42.708Z,25.73
2019-02-18T15:51:12.335Z,23.00
2019-02-18T15:53:42.006Z,22.13
2019-02-18T15:56:11.592Z,24.33
2019-02-18T15:58:41.140Z,23.37
2019-02-18T16:01:13.797Z,18.27
2019-02-18T16:03:43.403Z,22.37
2019-02-18T16:06:13.283Z,19.53
2019-02-18T16:08:42.828Z,21.20
2019-02-18T16:11:12.465Z,21.03
2019-02-18T16:13:42.318Z,21.73
2019-02-18T16:16:11.899Z,20.63
2019-02-18T16:18:41.479Z,21.57
2019-02-18T16:21:11.415Z,23.43
2019-02-18T16:23:41.040Z,20.37
2019-02-18T16:26:10.608Z,22.93
2019-02-18T16:28:40.204Z,20.40
2019-02-18T16:31:09.845Z,21.30
2019-02-18T16:33:39.732Z,23.47
2019-02-18T16:36:10.141Z,23.33
2019-02-18T16:38:39.708Z,23.20
2019-02-18T16:41:09.281Z,20.20
2019-02-18T16:43:39.540Z,19.50
2019-02-18T16:46:09.165Z,23.25
2019-02-18T16:48:39.068Z,22.85
2019-02-18T16:51:08.754Z,22.77
2019-02-18T16:53:38.308Z,24.13
2019-02-18T16:56:07.916Z,27.23
2019-02-18T16:58:37.580Z,24.60
2019-02-18T17:01:08.177Z,20.13
2019-02-18T17:03:38.172Z,24.03
2019-02-18T17:06:07.789Z,22.57
2019-02-18T17:08:37.689Z,24.30
2019-02-18T17:11:07.655Z,24.40
2019-02-18T17:13:37.254Z,26.17
2019-02-18T17:16:07.183Z,28.10
2019-02-18T17:18:37.134Z,24.03
2019-02-18T17:21:06.694Z,25.53
2019-02-18T17:23:36.306Z,24.97
2019-02-18T17:26:05.957Z,25.37
2019-02-18T17:28:36.003Z,25.33
2019-02-18T17:31:06.298Z,20.07
2019-02-18T17:33:35.931Z,24.23
2019-02-18T17:36:05.615Z,22.60
2019-02-18T17:38:35.221Z,20.23
2019-02-18T17:41:05.136Z,21.37
2019-02-18T17:43:34.898Z,23.77
2019-02-18T17:46:04.508Z,24.07
2019-02-18T17:48:34.268Z,20.93
2019-02-18T17:51:04.280Z,19.80
2019-02-18T17:53:33.935Z,24.50
2019-02-18T17:56:03.711Z,21.53
2019-02-18T17:58:33.332Z,22.53
2019-02-18T18:01:03.248Z,23.70
2019-02-18T18:03:32.916Z,23.30
2019-02-18T18:06:02.856Z,22.00
2019-02-18T18:08:32.471Z,21.77
2019-02-18T18:11:02.056Z,26.53
2019-02-18T18:13:31.862Z,19.67
2019-02-18T18:16:03.087Z,24.13
2019-02-18T18:18:32.643Z,22.33
2019-02-18T18:21:02.278Z,16.80
2019-02-18T18:23:32.255Z,21.37
2019-02-18T18:26:01.824Z,21.23
2019-02-18T18:28:31.448Z,20.50
2019-02-18T18:31:01.390Z,16.77
2019-02-18T18:33:31.002Z,20.23
2019-02-18T18:36:00.603Z,22.73
2019-02-18T18:38:30.922Z,21.97
2019-02-18T18:41:00.534Z,24.43
2019-02-18T18:43:33.880Z,21.80
2019-02-18T18:46:01.460Z,20.87
2019-02-18T18:48:31.135Z,21.82
2019-02-18T18:51:00.736Z,18.43
2019-02-18T18:53:30.345Z,23.97
2019-02-18T18:55:59.996Z,22.90
2019-02-18T18:58:29.733Z,23.57
2019-02-18T19:00:59.370Z,21.93
2019-02-18T19:03:28.924Z,17.77
2019-02-18T19:05:58.483Z,16.57
2019-02-18T19:08:28.056Z,18.73
2019-02-18T19:10:57.658Z,18.70
2019-02-18T19:13:28.140Z,17.47
2019-02-18T19:15:58.061Z,18.13
2019-02-18T19:18:28.306Z,20.30
2019-02-18T19:20:57.915Z,19.43
2019-02-18T19:23:27.737Z,15.47
2019-02-18T19:25:57.766Z,18.83
2019-02-18T19:28:29.086Z,16.13
2019-02-18T19:30:58.800Z,18.57
2019-02-18T19:33:28.951Z,19.53
2019-02-18T19:35:59.149Z,17.20
2019-02-18T19:38:28.859Z,19.33
2019-02-18T19:40:58.929Z,17.50
2019-02-18T19:43:28.599Z,18.60
2019-02-18T19:45:58.576Z,19.40
2019-02-18T19:48:28.279Z,19.73
2019-02-18T19:50:58.260Z,17.57
2019-02-18T19:53:29.230Z,18.87
2019-02-18T19:55:59.114Z,19.47
2019-02-18T19:58:28.640Z,20.72
2019-02-18T20:00:58.195Z,20.57
2019-02-18T20:03:27.692Z,21.03
2019-02-18T20:05:57.147Z,20.83
2019-02-18T20:08:26.942Z,17.50
2019-02-18T20:10:56.477Z,22.33
2019-02-18T20:13:28.567Z,20.70
2019-02-18T20:16:13.569Z,17.97
2019-02-18T20:18:51.055Z,16.13
2019-02-18T20:21:43.361Z,16.80
2019-02-18T20:24:12.463Z,14.60
2019-02-18T20:26:47.124Z,15.50
2019-02-18T20:29:17.216Z,16.33
2019-02-18T20:31:47.167Z,14.80
2019-02-18T20:34:17.325Z,15.80
2019-02-18T20:36:48.472Z,15.87
2019-02-18T20:39:19.935Z,16.87
2019-02-18T20:41:51.567Z,14.67
2019-02-18T20:44:21.404Z,17.50
2019-02-18T20:46:51.318Z,17.03
2019-02-18T20:49:21.502Z,16.67
2019-02-18T20:51:51.905Z,15.77
2019-02-18T20:54:24.327Z,16.40
2019-02-18T20:56:57.504Z,14.40
2019-02-18T20:59:32.724Z,15.03
2019-02-18T21:02:09.359Z,18.73
2019-02-18T21:04:43.644Z,17.37
2019-02-18T21:07:14.123Z,14.60
2019-02-18T21:09:44.142Z,18.00
2019-02-18T21:12:19.743Z,15.03
2019-02-18T21:14:45.869Z,16.33
2019-02-18T21:17:15.785Z,12.70
2019-02-18T21:19:45.796Z,20.00
2019-02-18T21:22:15.407Z,13.17
2019-02-18T21:24:46.283Z,15.47
2019-02-18T21:27:16.378Z,14.17
2019-02-18T21:29:46.675Z,14.40
2019-02-18T21:32:29.133Z,14.90
2019-02-18T21:35:02.684Z,15.67
2019-02-18T21:37:37.526Z,16.67
2019-02-18T21:40:07.734Z,13.93
2019-02-18T21:42:40.657Z,19.50
2019-02-18T21:45:15.774Z,15.23
2019-02-18T21:47:45.584Z,16.13
2019-02-18T21:50:19.417Z,16.20
2019-02-18T21:52:58.979Z,17.03
2019-02-18T21:55:35.329Z,15.33
2019-02-18T21:58:19.071Z,15.20
2019-02-18T22:00:49.431Z,13.03
2019-02-18T22:03:22.303Z,14.83
2019-02-18T22:06:21.459Z,17.17
2019-02-18T22:08:52.033Z,16.23
2019-02-18T22:11:26.578Z,13.17
2019-02-18T22:13:58.372Z,13.27
2019-02-18T22:16:28.667Z,19.27
2019-02-18T22:19:01.141Z,18.47
2019-02-18T22:21:32.767Z,14.93
2019-02-18T22:24:03.604Z,13.67
2019-02-18T22:27:07.000Z,18.97
2019-02-18T22:29:45.724Z,17.70
2019-02-18T22:32:15.270Z,15.80
2019-02-18T22:34:44.806Z,13.00
2019-02-18T22:37:14.344Z,14.73
2019-02-18T22:39:44.783Z,15.23
2019-02-18T22:42:14.538Z,14.53
2019-02-18T22:44:44.090Z,13.60
2019-02-18T22:47:13.620Z,14.13
2019-02-18T22:49:43.176Z,12.90
2019-02-18T22:52:12.687Z,16.90
2019-02-18T22:54:42.265Z,17.00
2019-02-18T22:57:12.387Z,14.60
2019-02-18T22:59:42.204Z,13.20
2019-02-18T23:02:11.760Z,16.03
2019-02-18T23:04:41.591Z,12.90
2019-02-18T23:07:11.131Z,11.47
2019-02-18T23:09:40.684Z,13.63
2019-02-18T23:12:10.806Z,13.20
2019-02-18T23:14:40.381Z,15.73
2019-02-18T23:17:09.920Z,9.93
2019-02-18T23:19:39.887Z,15.23
2019-02-18T23:22:09.513Z,11.30
2019-02-18T23:24:39.170Z,10.80
2019-02-18T23:27:08.961Z,11.60
2019-02-18T23:29:39.054Z,11.87
2019-02-18T23:32:08.600Z,12.03
2019-02-18T23:34:38.164Z,10.43
2019-02-18T23:37:07.719Z,11.60
2019-02-18T23:39:37.175Z,8.63
2019-02-18T23:42:06.652Z,14.47
2019-02-18T23:44:36.214Z,11.77
2019-02-18T23:47:06.402Z,11.20
2019-02-18T23:49:36.257Z,11.40
2019-02-18T23:52:05.960Z,14.03
2019-02-18T23:54:36.259Z,10.87
2019-02-18T23:57:06.019Z,13.93
2019-02-18T23:59:35.858Z,10.80
